臺北終端管制區 - 松西席

METAR RCSS 240800Z 09008KT 9999 -RA FEW008 BKN022 BKN045 25/24 Q1010 NOSIG RMK A2985 RA AMT 0.6MM=

站台狀態:Offline
最後更新:2020-09-24 16:00:02